Newark Liberty International Airport
KEWR : now visible

Aeroporto :











RITROVATECI SU...

 
LOGIN :

Iscrizione | Disclaimer

   EN    FR    IT 

 









Sommario :    VFR   VFR Marginale   IFR   IFR Intensivo   IFR Molto Intensivo
Visibilità : 
Base nubi : 
>= 8 km
>= 3000ft
5 / 8 km
1000 / 3000 ft
1500m / 5 km
500 / 1000 ft
800 / 1500m
200 / 500 ft
< 800m
< 200 ft
Simboli :   Temporali  Nebbia  Neve Forte  Precipitazioni Forti  Vento > 20 kt






- Altitudine del aeroporto : 18 ft
- Codice IATA : EWR


KEWR - Newark Liberty International

ULTIMO METAR :
  • 051751Z 32017G23KT 10SM -RA BKN025 BKN033 OVC060 07/04 A2961 RMK AO2 PK WND 35026/1657 SLP026 P0000 60020 T00670039 10067 20044 58009

METARs OBSOLETI :
  • 051651Z 33018G25KT 10SM -RA BKN020 BKN055 OVC070 06/03 A2962 RMK AO2 PK WND 33026/1558 SLP030 P0002 T00610033
  • 051551Z 34018G24KT 6SM -RA BR SCT014 BKN018 OVC030 06/03 A2964 RMK AO2 PK WND 33029/1521 SLP035 P0004 T00560033

TAF KEWR
Valido dal 05 a 18 ore il 07 a 00 ore UTC


051731Z 0518/0624 32022G32KT 5SM -RA BR OVC020
FM052000 31021G30KT P6SM BKN035
FM060000 31018G26KT P6SM SCT040
FM060800 29015G21KT P6SM SKC
FM061500 31015G23KT P6SM SKC
FIR KZNY / America del Nord



MetMap, La meteo Aeronautica in un colpo d'occhio ! - Copyright ORBIFLY Dicembre 2007 - Disclaimer

ORBIFLY MET'MAP TEAM :

Programmazione e sviluppo : Alexandra Zaïnal
Concezione : Baudouin d'Aumeries
Aiuto per la programmazione : Marc-Olivier Méhu
Supporto tecnico e logistico : Manuel Goepfert
Aiuto per la traduzione : Arnaldo La Scala

Contatto : metmap@orbifly.com




FONTI E CREDITI :

   NOAA       Earth
Advisory